createdAt,value
2019-01-13T00:00:28.361Z,94597.08
2019-01-13T00:03:32.964Z,94605.67
2019-01-13T00:06:37.718Z,94602.53
2019-01-13T00:09:42.336Z,94594.63
2019-01-13T00:12:47.318Z,94603.51
2019-01-13T00:15:52.464Z,94604.05
2019-01-13T00:18:57.124Z,94598.80
2019-01-13T00:22:01.812Z,94594.39
2019-01-13T00:25:07.165Z,94593.06
2019-01-13T00:28:12.126Z,94598.53
2019-01-13T00:31:16.816Z,94595.36
2019-01-13T00:34:21.875Z,94603.72
2019-01-13T00:37:26.542Z,94601.15
2019-01-13T00:40:31.226Z,94597.50
2019-01-13T00:43:36.277Z,94597.26
2019-01-13T00:46:40.944Z,94605.87
2019-01-13T00:49:45.674Z,94599.86
2019-01-13T00:52:50.595Z,94597.50
2019-01-13T00:55:55.206Z,94599.52
2019-01-13T00:59:00.034Z,94594.64
2019-01-13T01:02:05.040Z,94597.26
2019-01-13T01:05:12.795Z,94599.80
2019-01-13T01:08:17.635Z,94602.98
2019-01-13T01:11:22.441Z,94598.21
2019-01-13T01:14:27.349Z,94605.52
2019-01-13T01:17:32.033Z,94602.14
2019-01-13T01:20:36.727Z,94603.45
2019-01-13T01:23:41.694Z,94594.56
2019-01-13T01:26:46.450Z,94606.56
2019-01-13T01:29:51.233Z,94608.86
2019-01-13T01:32:55.913Z,94614.08
2019-01-13T01:36:00.538Z,94608.59
2019-01-13T01:39:07.733Z,94610.36
2019-01-13T01:42:12.429Z,94610.61
2019-01-13T01:45:19.909Z,94613.50
2019-01-13T01:48:24.502Z,94610.34
2019-01-13T01:51:29.433Z,94604.58
2019-01-13T01:54:34.089Z,94603.30
2019-01-13T01:57:39.141Z,94604.33
2019-01-13T02:00:43.867Z,94602.84
2019-01-13T02:03:48.542Z,94610.42
2019-01-13T02:06:53.235Z,94601.27
2019-01-13T02:09:57.883Z,94604.33
2019-01-13T02:13:02.562Z,94608.52
2019-01-13T02:16:07.191Z,94610.34
2019-01-13T02:19:11.822Z,94599.09
2019-01-13T02:22:16.453Z,94606.14
2019-01-13T02:25:25.563Z,94608.95
2019-01-13T02:28:30.750Z,94609.48
2019-01-13T02:31:35.631Z,94610.27
2019-01-13T02:34:40.257Z,94602.67
2019-01-13T02:37:45.226Z,94604.42
2019-01-13T02:40:49.864Z,94601.60
2019-01-13T02:43:54.551Z,94611.47
2019-01-13T02:46:59.163Z,94604.70
2019-01-13T02:50:06.123Z,94601.55
2019-01-13T02:53:11.151Z,94593.69
2019-01-13T02:56:16.288Z,94592.81
2019-01-13T02:59:20.973Z,94598.05
2019-01-13T03:02:25.729Z,94604.91
2019-01-13T03:05:30.342Z,94599.67
2019-01-13T03:08:35.219Z,94604.67
2019-01-13T03:11:39.928Z,94605.53
2019-01-13T03:14:44.889Z,94600.06
2019-01-13T03:17:51.353Z,94596.32
2019-01-13T03:20:56.028Z,94586.87
2019-01-13T03:24:00.933Z,94588.68
2019-01-13T03:27:05.647Z,94586.50
2019-01-13T03:30:20.176Z,94586.20
2019-01-13T03:33:25.164Z,94592.26
2019-01-13T03:36:29.852Z,94592.19
2019-01-13T03:39:34.474Z,94596.37
2019-01-13T03:42:39.108Z,94589.80
2019-01-13T03:45:44.039Z,94585.64
2019-01-13T03:48:48.670Z,94579.13
2019-01-13T03:51:53.327Z,94582.22
2019-01-13T03:54:57.973Z,94585.66
2019-01-13T03:58:02.598Z,94581.72
2019-01-13T04:01:07.693Z,94593.22
2019-01-13T04:04:12.541Z,94589.57
2019-01-13T04:07:17.155Z,94595.36
2019-01-13T04:10:21.856Z,94586.54
2019-01-13T04:13:26.480Z,94589.92
2019-01-13T04:16:31.805Z,94581.61
2019-01-13T04:19:39.177Z,94578.42
2019-01-13T04:22:44.181Z,94576.81
2019-01-13T04:25:51.978Z,94569.91
2019-01-13T04:28:56.882Z,94587.91
2019-01-13T04:32:01.514Z,94579.28
2019-01-13T04:35:08.608Z,94586.08
2019-01-13T04:38:13.523Z,94583.78
2019-01-13T04:41:18.392Z,94584.78
2019-01-13T04:44:23.067Z,94584.84
2019-01-13T04:47:28.046Z,94581.34
2019-01-13T04:50:32.759Z,94576.03
2019-01-13T04:53:37.503Z,94588.09
2019-01-13T04:56:42.128Z,94586.52
2019-01-13T04:59:46.770Z,94590.42
2019-01-13T05:02:51.682Z,94589.22
2019-01-13T05:05:56.348Z,94580.97
2019-01-13T05:09:01.412Z,94577.84
2019-01-13T05:12:06.410Z,94588.29
2019-01-13T05:15:14.804Z,94583.86
2019-01-13T05:18:19.761Z,94584.89
2019-01-13T05:21:24.816Z,94585.09
2019-01-13T05:24:29.712Z,94578.09
2019-01-13T05:27:34.361Z,94594.48
2019-01-13T05:30:39.032Z,94590.91
2019-01-13T05:33:43.712Z,94591.36
2019-01-13T05:36:48.365Z,94599.77
2019-01-13T05:39:52.976Z,94586.67
2019-01-13T05:42:57.591Z,94578.30
2019-01-13T05:46:03.962Z,94578.67
2019-01-13T05:49:08.790Z,94583.00
2019-01-13T05:52:13.735Z,94582.75
2019-01-13T05:55:18.878Z,94581.49
2019-01-13T05:58:23.586Z,94590.05
2019-01-13T06:01:28.440Z,94593.95
2019-01-13T06:04:33.394Z,94591.61
2019-01-13T06:07:38.413Z,94595.73
2019-01-13T06:10:43.347Z,94588.23
2019-01-13T06:13:47.966Z,94594.15
2019-01-13T06:16:52.592Z,94600.44
2019-01-13T06:19:57.612Z,94600.70
2019-01-13T06:23:02.598Z,94593.20
2019-01-13T06:26:07.311Z,94591.61
2019-01-13T06:29:11.931Z,94590.30
2019-01-13T06:32:16.905Z,94594.48
2019-01-13T06:35:21.670Z,94594.93
2019-01-13T06:38:26.286Z,94588.94
2019-01-13T06:41:31.216Z,94585.46
2019-01-13T06:44:36.081Z,94585.52
2019-01-13T06:47:43.851Z,94580.53
2019-01-13T06:50:48.480Z,94583.95
2019-01-13T06:53:53.195Z,94581.84
2019-01-13T06:56:57.870Z,94575.67
2019-01-13T07:00:03.657Z,94585.06
2019-01-13T07:03:08.601Z,94585.59
2019-01-13T07:06:13.296Z,94581.41
2019-01-13T07:09:18.112Z,94574.09
2019-01-13T07:12:22.795Z,94585.17
2019-01-13T07:15:29.358Z,94576.98
2019-01-13T07:18:34.049Z,94574.95
2019-01-13T07:21:38.975Z,94573.28
2019-01-13T07:24:43.881Z,94574.09
2019-01-13T07:27:48.513Z,94574.22
2019-01-13T07:30:54.713Z,94565.26
2019-01-13T07:33:59.644Z,94577.20
2019-01-13T07:37:05.856Z,94568.32
2019-01-13T07:40:16.916Z,94569.38
2019-01-13T07:43:21.573Z,94567.34
2019-01-13T07:46:26.445Z,94564.63
2019-01-13T07:49:31.130Z,94567.80
2019-01-13T07:52:36.000Z,94561.50
2019-01-13T07:55:40.630Z,94569.02
2019-01-13T07:58:45.544Z,94552.25
2019-01-13T08:01:50.474Z,94563.53
2019-01-13T08:04:55.088Z,94548.69
2019-01-13T08:07:59.752Z,94548.88
2019-01-13T08:11:04.599Z,94557.77
2019-01-13T08:14:09.228Z,94551.38
2019-01-13T08:17:14.183Z,94558.59
2019-01-13T08:20:32.529Z,94553.52
2019-01-13T08:23:37.271Z,94548.00
2019-01-13T08:26:42.129Z,94547.97
2019-01-13T08:29:47.012Z,94543.44
2019-01-13T08:32:51.622Z,94538.42
2019-01-13T08:35:59.400Z,94537.36
2019-01-13T08:39:05.887Z,94539.52
2019-01-13T08:42:10.500Z,94543.28
2019-01-13T08:45:15.864Z,94539.36
2019-01-13T08:48:20.780Z,94540.07
2019-01-13T08:51:25.409Z,94532.79
2019-01-13T08:54:30.040Z,94528.86
2019-01-13T08:57:34.731Z,94528.08
2019-01-13T09:00:39.520Z,94522.23
2019-01-13T09:03:44.197Z,94519.09
2019-01-13T09:06:49.070Z,94520.55
2019-01-13T09:09:53.817Z,94522.35
2019-01-13T09:12:58.484Z,94524.48
2019-01-13T09:16:03.122Z,94520.76
2019-01-13T09:19:08.092Z,94516.54
2019-01-13T09:22:12.720Z,94523.88
2019-01-13T09:25:17.801Z,94525.22
2019-01-13T09:28:22.697Z,94516.02
2019-01-13T09:31:28.844Z,94517.03
2019-01-13T09:34:33.532Z,94519.41
2019-01-13T09:37:38.377Z,94519.55
2019-01-13T09:40:43.058Z,94517.89
2019-01-13T09:43:48.199Z,94519.91
2019-01-13T09:46:52.958Z,94519.45
2019-01-13T09:49:57.889Z,94503.92
2019-01-13T09:53:02.828Z,94497.64
2019-01-13T09:56:07.499Z,94494.24
2019-01-13T09:59:12.162Z,94477.86
2019-01-13T10:02:17.116Z,94473.80
2019-01-13T10:05:21.815Z,94459.28
2019-01-13T10:08:28.420Z,94451.70
2019-01-13T10:11:33.309Z,94452.89
2019-01-13T10:14:37.939Z,94448.14
2019-01-13T10:17:42.641Z,94437.20
2019-01-13T10:20:47.501Z,94429.37
2019-01-13T10:23:54.039Z,94425.59
2019-01-13T10:27:00.236Z,94423.13
2019-01-13T10:30:15.477Z,94422.52
2019-01-13T10:33:20.239Z,94410.88
2019-01-13T10:36:25.086Z,94410.34
2019-01-13T10:39:29.759Z,94402.67
2019-01-13T10:42:34.366Z,94388.33
2019-01-13T10:45:39.402Z,94389.43
2019-01-13T10:48:44.058Z,94379.15
2019-01-13T10:51:48.957Z,94368.70
2019-01-13T10:54:53.942Z,94375.14
2019-01-13T10:57:58.647Z,94372.27
2019-01-13T11:01:03.732Z,94370.86
2019-01-13T11:04:08.465Z,94378.53
2019-01-13T11:07:13.117Z,94375.98
2019-01-13T11:10:18.904Z,94374.42
2019-01-13T11:13:23.566Z,94364.18
2019-01-13T11:16:28.257Z,94353.31
2019-01-13T11:19:32.996Z,94352.20
2019-01-13T11:22:37.952Z,94348.92
2019-01-13T11:25:42.588Z,94335.97
2019-01-13T11:28:47.202Z,94327.86
2019-01-13T11:31:52.111Z,94311.84
2019-01-13T11:34:56.978Z,94298.42
2019-01-13T11:38:01.679Z,94292.61
2019-01-13T11:41:06.851Z,94293.26
2019-01-13T11:44:11.564Z,94275.28
2019-01-13T11:47:16.335Z,94277.99
2019-01-13T11:50:24.128Z,94263.20
2019-01-13T11:53:28.790Z,94266.68
2019-01-13T11:56:33.680Z,94257.55
2019-01-13T11:59:38.537Z,94242.66
2019-01-13T12:02:43.481Z,94253.33
2019-01-13T12:05:48.477Z,94244.74
2019-01-13T12:08:53.395Z,94227.58
2019-01-13T12:11:58.245Z,94222.62
2019-01-13T12:15:03.370Z,94207.92
2019-01-13T12:18:10.661Z,94209.34
2019-01-13T12:21:15.627Z,94197.61
2019-01-13T12:24:20.442Z,94187.66
2019-01-13T12:27:25.059Z,94173.13
2019-01-13T12:30:31.884Z,94148.87
2019-01-13T12:33:36.574Z,94137.02
2019-01-13T12:36:41.479Z,94125.30
2019-01-13T12:39:46.460Z,94119.05
2019-01-13T12:42:51.489Z,94099.99
2019-01-13T12:45:56.176Z,94122.73
2019-01-13T12:49:00.798Z,94092.09
2019-01-13T12:52:05.979Z,94089.35
2019-01-13T12:55:10.845Z,94083.95
2019-01-13T12:58:15.469Z,94080.72
2019-01-13T13:01:20.197Z,94081.79
2019-01-13T13:04:24.844Z,94078.06
2019-01-13T13:07:29.499Z,94068.61
2019-01-13T13:10:37.955Z,94070.38
2019-01-13T13:13:42.728Z,94067.30
2019-01-13T13:16:47.668Z,94056.21
2019-01-13T13:19:52.520Z,94050.56
2019-01-13T13:22:57.464Z,94045.74
2019-01-13T13:26:04.948Z,94038.20
2019-01-13T13:29:09.684Z,94043.36
2019-01-13T13:32:14.455Z,94029.85
2019-01-13T13:35:19.575Z,94022.61
2019-01-13T13:38:24.433Z,94018.44
2019-01-13T13:41:29.101Z,94026.95
2019-01-13T13:44:33.994Z,94016.77
2019-01-13T13:47:38.967Z,94014.93
2019-01-13T13:50:43.861Z,94006.84
2019-01-13T13:53:48.798Z,94002.80
2019-01-13T13:56:53.459Z,93995.04
2019-01-13T13:59:58.091Z,94009.08
2019-01-13T14:03:03.102Z,94000.11
2019-01-13T14:06:07.759Z,93991.77
2019-01-13T14:09:12.809Z,93988.87
2019-01-13T14:12:19.462Z,93988.37
2019-01-13T14:15:23.870Z,93988.33
2019-01-13T14:18:28.478Z,93987.27
2019-01-13T14:21:33.101Z,93997.41
2019-01-13T14:24:37.760Z,93988.16
2019-01-13T14:27:42.496Z,93987.25
2019-01-13T14:30:47.674Z,93984.10
2019-01-13T14:33:53.088Z,93956.19
2019-01-13T14:36:58.215Z,93961.00
2019-01-13T14:40:03.707Z,93953.91
2019-01-13T14:43:08.430Z,93950.17
2019-01-13T14:46:13.637Z,93950.87
2019-01-13T14:49:18.303Z,93937.19
2019-01-13T14:52:23.197Z,93931.47
2019-01-13T14:55:29.092Z,93915.94
2019-01-13T14:58:46.574Z,93910.70
2019-01-13T15:01:51.166Z,93899.93
2019-01-13T15:04:56.067Z,93897.18
2019-01-13T15:08:01.026Z,93887.52
2019-01-13T15:11:05.716Z,93872.19
2019-01-13T15:14:10.658Z,93866.51
2019-01-13T15:17:17.233Z,93855.55
2019-01-13T15:20:24.219Z,93860.84
2019-01-13T15:23:29.274Z,93853.50
2019-01-13T15:26:34.345Z,93851.13
2019-01-13T15:29:39.388Z,93841.89
2019-01-13T15:32:44.365Z,93824.18
2019-01-13T15:35:49.197Z,93835.45
2019-01-13T15:38:53.945Z,93819.11
2019-01-13T15:41:58.658Z,93829.14
2019-01-13T15:45:03.335Z,93822.27
2019-01-13T15:48:08.446Z,93811.87
2019-01-13T15:51:13.224Z,93806.41
2019-01-13T15:54:18.268Z,93788.69
2019-01-13T15:57:22.922Z,93774.57
2019-01-13T16:00:33.511Z,93781.50
2019-01-13T16:03:38.123Z,93772.72
2019-01-13T16:06:43.539Z,93776.12
2019-01-13T16:09:48.423Z,93764.63
2019-01-13T16:12:53.278Z,93764.80
2019-01-13T16:15:58.219Z,93776.42
2019-01-13T16:19:02.944Z,93763.72
2019-01-13T16:22:07.855Z,93760.93
2019-01-13T16:25:12.681Z,93765.71
2019-01-13T16:28:19.604Z,93757.31
2019-01-13T16:31:24.530Z,93757.01
2019-01-13T16:34:29.457Z,93733.11
2019-01-13T16:37:34.170Z,93740.98
2019-01-13T16:40:39.212Z,93751.37
2019-01-13T16:43:45.168Z,93741.58
2019-01-13T16:46:50.124Z,93758.16
2019-01-13T16:49:54.821Z,93751.67
2019-01-13T16:52:59.638Z,93739.32
2019-01-13T16:56:04.643Z,93727.58
2019-01-13T16:59:09.450Z,93709.05
2019-01-13T17:02:14.478Z,93724.17
2019-01-13T17:05:21.310Z,93714.98
2019-01-13T17:08:26.051Z,93700.59
2019-01-13T17:11:31.063Z,93700.97
2019-01-13T17:14:36.073Z,93685.59
2019-01-13T17:17:40.992Z,93689.99
2019-01-13T17:20:45.874Z,93684.88
2019-01-13T17:23:50.540Z,93681.41
2019-01-13T17:26:55.360Z,93701.20
2019-01-13T17:30:00.184Z,93690.87
2019-01-13T17:33:13.251Z,93695.94
2019-01-13T17:36:18.429Z,93697.13
2019-01-13T17:39:26.346Z,93698.20
2019-01-13T17:42:31.009Z,93678.73
2019-01-13T17:45:35.843Z,93676.95
2019-01-13T17:48:40.502Z,93674.02
2019-01-13T17:51:45.185Z,93677.64
2019-01-13T17:54:49.863Z,93675.95
2019-01-13T17:57:54.767Z,93668.34
2019-01-13T18:01:01.598Z,93664.63
2019-01-13T18:04:06.229Z,93649.04
2019-01-13T18:07:11.141Z,93639.29
2019-01-13T18:10:16.036Z,93654.37
2019-01-13T18:13:20.785Z,93638.58
2019-01-13T18:16:25.661Z,93643.28
2019-01-13T18:19:30.661Z,93647.39
2019-01-13T18:22:35.467Z,93630.33
2019-01-13T18:25:40.452Z,93635.72
2019-01-13T18:28:45.330Z,93635.86
2019-01-13T18:31:53.011Z,93626.09
2019-01-13T18:34:57.658Z,93616.95
2019-01-13T18:38:21.962Z,93623.50
2019-01-13T18:41:39.351Z,93610.26
2019-01-13T18:45:03.785Z,93607.14
2019-01-13T18:48:27.745Z,93616.67
2019-01-13T18:51:52.052Z,93605.41
2019-01-13T18:55:35.606Z,93612.73
2019-01-13T18:58:40.462Z,93611.27
2019-01-13T19:01:45.114Z,93615.05
2019-01-13T19:04:49.736Z,93613.16
2019-01-13T19:08:13.732Z,93611.77
2019-01-13T19:18:57.066Z,93589.62
2019-01-13T19:22:21.083Z,93591.31
2019-01-13T19:25:45.294Z,93583.47
2019-01-13T19:28:49.949Z,93580.08
2019-01-13T19:31:54.805Z,93569.61
2019-01-13T19:35:19.082Z,93571.72
2019-01-13T19:38:43.048Z,93560.73
2019-01-13T19:42:00.462Z,93556.84
2019-01-13T19:45:24.696Z,93549.20
2019-01-13T19:48:29.616Z,93541.98
2019-01-13T19:51:53.583Z,93533.59
2019-01-13T19:59:08.509Z,93525.06
2019-01-13T20:02:32.487Z,93526.15
2019-01-13T20:05:56.496Z,93521.95
2019-01-13T20:09:20.801Z,93511.55
2019-01-13T20:12:45.141Z,93523.37
2019-01-13T20:16:09.114Z,93523.06
2019-01-13T20:19:33.458Z,93525.47
2019-01-13T20:22:57.470Z,93523.16
2019-01-13T20:26:21.503Z,93529.31
2019-01-13T20:29:45.531Z,93518.30
2019-01-13T20:33:09.501Z,93521.48
2019-01-13T20:36:33.453Z,93495.75
2019-01-13T20:39:57.414Z,93507.13
2019-01-13T20:43:21.710Z,93496.31
2019-01-13T20:47:04.913Z,93487.98
2019-01-13T20:50:48.406Z,93488.95
2019-01-13T20:53:53.069Z,93486.05
2019-01-13T20:56:58.006Z,93470.28
2019-01-13T21:00:02.632Z,93461.86
2019-01-13T21:03:26.858Z,93460.08
2019-01-13T21:10:33.807Z,93457.28
2019-01-13T21:13:58.027Z,93455.93
2019-01-13T21:17:22.256Z,93456.92
2019-01-13T21:20:46.261Z,93460.53
2019-01-13T21:24:10.517Z,93453.20
2019-01-13T21:31:19.368Z,93459.08
2019-01-13T21:34:43.341Z,93455.85
2019-01-13T21:38:07.308Z,93459.69
2019-01-13T21:41:24.539Z,93460.24
2019-01-13T21:44:48.539Z,93462.02
2019-01-13T21:48:31.529Z,93461.80
2019-01-13T21:51:55.567Z,93466.84
2019-01-13T21:55:20.044Z,93460.48
2019-01-13T21:58:44.043Z,93458.39
2019-01-13T22:02:39.329Z,93455.41
2019-01-13T22:05:40.777Z,93445.41
2019-01-13T22:08:59.724Z,93452.84
2019-01-13T22:12:23.959Z,93452.38
2019-01-13T22:15:28.898Z,93438.84
2019-01-13T22:18:53.265Z,93436.98
2019-01-13T22:22:17.470Z,93452.84
2019-01-13T22:25:41.495Z,93440.61
2019-01-13T22:28:46.244Z,93433.05
2019-01-13T22:32:10.317Z,93438.62
2019-01-13T22:35:15.034Z,93421.77
2019-01-13T22:38:39.252Z,93435.46
2019-01-13T22:41:56.554Z,93426.16
2019-01-13T22:45:41.557Z,93444.20
2019-01-13T22:49:06.008Z,93439.08
2019-01-13T22:52:10.625Z,93447.83
2019-01-13T22:59:04.975Z,93495.11
2019-01-13T23:02:30.248Z,93509.32
2019-01-13T23:05:36.408Z,93511.91
2019-01-13T23:08:41.025Z,93509.15
2019-01-13T23:12:05.338Z,93511.66
2019-01-13T23:15:29.309Z,93515.47
2019-01-13T23:19:12.355Z,93511.44
2019-01-13T23:22:36.319Z,93511.42
2019-01-13T23:26:19.580Z,93521.01
2019-01-13T23:29:24.533Z,93511.29
2019-01-13T23:32:48.560Z,93526.38
2019-01-13T23:36:12.660Z,93526.89
2019-01-13T23:39:36.617Z,93509.75
2019-01-13T23:42:53.807Z,93501.81
2019-01-13T23:46:18.068Z,93496.88
2019-01-13T23:49:23.008Z,93509.69
2019-01-13T23:59:27.797Z,93500.81
